Time;durP1;ratioP1;P1;durP2;ratioP2;P2;SDS_P1;SDS_P2;PMS_P1;PMS_P2;Temp;Humidity;BMP_temperature;BMP_pressure;BME280_temperature;BME280_humidity;BME280_pressure;Samples;Min_cycle;Max_cycle;Signal;HPM_P1;HPM_P2
2021/08/06 00:01:34;;;;;;;9.40;3.33;;;;;;;20.35;86.58;98789.64;1670206;86;21019;-73
2021/08/06 00:04:00;;;;;;;5.70;3.60;;;;;;;20.30;86.97;98786.55;1637660;87;21035;-73
2021/08/06 00:06:27;;;;;;;6.55;3.42;;;;;;;20.25;87.69;98777.73;1670206;86;21034;-73
2021/08/06 00:08:56;;;;;;;7.03;3.65;;;;;;;20.20;88.26;98772.48;1637362;87;21512;-72
2021/08/06 00:11:31;;;;;;;5.45;4.33;;;;;;;20.15;88.52;98769.95;1645590;86;20936;-72
2021/08/06 00:13:57;;;;;;;3.72;3.20;;;;;;;20.09;88.81;98758.47;1668950;86;21050;-72
2021/08/06 00:16:26;;;;;;;12.05;4.12;;;;;;;20.12;88.61;98757.79;1638012;87;21016;-71
2021/08/06 00:18:52;;;;;;;4.17;3.08;;;;;;;20.17;87.71;98768.51;1669916;86;21079;-73
2021/08/06 00:21:19;;;;;;;6.80;3.45;;;;;;;20.22;87.46;98771.03;1669424;85;21133;-72
2021/08/06 00:23:45;;;;;;;3.90;3.50;;;;;;;20.24;87.22;98772.84;1670216;86;21095;-76
2021/08/06 00:26:13;;;;;;;4.87;3.08;;;;;;;20.21;87.19;98766.70;1670438;85;20992;-76
2021/08/06 00:28:41;;;;;;;3.10;2.80;;;;;;;20.17;88.02;98765.78;1646880;86;21100;-75
2021/08/06 00:31:07;;;;;;;5.97;4.72;;;;;;;20.17;88.02;98765.78;1674603;85;21057;-73
2021/08/06 00:33:34;;;;;;;7.47;3.98;;;;;;;20.18;88.49;98763.28;1677504;85;22129;-74
2021/08/06 00:36:03;;;;;;;4.83;3.72;;;;;;;20.13;89.49;98757.23;1678494;85;21605;-70
2021/08/06 00:38:30;;;;;;;7.08;4.47;;;;;;;20.07;89.50;98747.08;1653742;86;21094;-71
2021/08/06 00:40:57;;;;;;;4.47;4.08;;;;;;;20.06;89.08;98746.84;1652649;86;21559;-71
2021/08/06 00:43:25;;;;;;;10.55;4.55;;;;;;;20.06;88.96;98752.30;1653424;86;21099;-69
2021/08/06 00:45:52;;;;;;;8.58;4.58;;;;;;;20.07;88.83;98742.98;1632121;86;21127;-70
2021/08/06 00:48:20;;;;;;;7.12;4.08;;;;;;;20.07;89.13;98758.56;1667768;84;21061;-70
2021/08/06 00:50:50;;;;;;;8.00;5.35;;;;;;;20.10;89.03;98758.68;1658952;85;21010;-68
2021/08/06 00:53:17;;;;;;;6.92;4.67;;;;;;;20.14;89.30;98758.83;1678064;85;21603;-69
2021/08/06 00:55:45;;;;;;;10.38;5.67;;;;;;;20.14;89.32;98756.91;1678950;84;21437;-69
2021/08/06 00:58:15;;;;;;;11.35;5.12;;;;;;;20.19;89.71;98759.98;1682347;84;21343;-70
2021/08/06 01:00:43;;;;;;;11.73;6.00;;;;;;;20.19;89.98;98770.91;1678652;85;21633;-70
2021/08/06 01:03:27;;;;;;;7.47;5.55;;;;;;;20.20;90.29;98765.09;1681595;85;21008;-69
2021/08/06 01:06:01;;;;;;;7.08;6.37;;;;;;;20.19;91.31;98761.36;1678726;85;21004;-70
2021/08/06 01:08:38;;;;;;;10.15;6.83;;;;;;;20.19;91.70;98748.47;1678877;85;21023;-70
2021/08/06 01:11:05;;;;;;;11.85;5.70;;;;;;;20.22;91.77;98750.55;1678918;85;22269;-70
2021/08/06 01:13:48;;;;;;;11.45;6.83;;;;;;;20.22;92.25;98745.09;1655314;85;21073;-69
2021/08/06 01:16:16;;;;;;;19.07;8.13;;;;;;;20.21;92.90;98748.95;1654446;86;20994;-70
2021/08/06 01:18:50;;;;;;;11.05;6.58;;;;;;;20.21;93.42;98747.58;1655513;85;21626;-70
2021/08/06 01:21:18;;;;;;;11.85;7.17;;;;;;;20.20;93.26;98750.64;1607134;88;21562;-71
2021/08/06 01:23:46;;;;;;;11.00;6.45;;;;;;;20.19;93.39;98747.70;1650598;86;21112;-75
2021/08/06 01:26:19;;;;;;;14.00;6.60;;;;;;;20.19;93.20;98743.61;1656287;85;20970;-69
2021/08/06 01:29:00;;;;;;;8.38;5.60;;;;;;;20.17;92.78;98724.82;1653864;86;21101;-70
2021/08/06 01:31:29;;;;;;;11.78;5.20;;;;;;;20.17;92.38;98725.39;1586411;88;21004;-71
2021/08/06 01:33:57;;;;;;;8.10;5.22;;;;;;;20.17;91.88;98721.29;1610423;88;20971;-70
2021/08/06 01:36:25;;;;;;;8.85;5.30;;;;;;;20.14;91.53;98723.34;1613088;89;21242;-70
2021/08/06 01:38:52;;;;;;;6.80;4.50;;;;;;;20.13;91.75;98714.34;1602939;89;21059;-71
2021/08/06 01:41:43;;;;;;;8.55;5.33;;;;;;;20.10;91.55;98706.81;1640297;87;20991;-70
2021/08/06 01:44:38;;;;;;;5.22;3.90;;;;;;;20.08;91.78;98696.81;1613610;88;21081;-69
2021/08/06 01:47:13;;;;;;;5.58;4.58;;;;;;;20.03;91.51;98675.19;1620253;88;21033;-70
2021/08/06 01:49:51;;;;;;;10.23;3.95;;;;;;;19.96;92.29;98674.36;1640442;87;21015;-71
2021/08/06 01:52:34;;;;;;;4.47;3.98;;;;;;;19.91;92.46;98666.94;1606676;88;21030;-70
2021/08/06 01:55:04;;;;;;;5.17;3.37;;;;;;;19.86;92.58;98633.03;1603095;89;21036;-69
2021/08/06 01:57:34;;;;;;;7.47;4.30;;;;;;;19.85;92.71;98616.45;1604459;87;21089;-69
2021/08/06 02:00:03;;;;;;;7.42;3.20;;;;;;;19.84;92.53;98603.94;1617710;87;21054;-71
2021/08/06 02:02:32;;;;;;;6.17;3.20;;;;;;;19.85;92.50;98576.33;1622866;87;21069;-70
2021/08/06 02:04:59;;;;;;;10.10;3.15;;;;;;;19.89;92.72;98566.33;1638362;87;21795;-70
2021/08/06 02:07:29;;;;;;;8.18;4.22;;;;;;;19.84;93.15;98567.91;1612929;89;21055;-70
2021/08/06 02:09:56;;;;;;;9.80;4.30;;;;;;;19.83;93.07;98561.41;1613521;88;20985;-70
2021/08/06 02:12:24;;;;;;;10.23;4.80;;;;;;;19.78;93.20;98533.78;1596858;87;21087;-71
2021/08/06 02:14:52;;;;;;;8.85;4.05;;;;;;;19.77;93.37;98538.20;1640513;87;21191;-71
2021/08/06 02:17:21;;;;;;;12.10;5.75;;;;;;;19.74;93.33;98514.33;1640469;87;21072;-70
2021/08/06 02:19:50;;;;;;;12.55;5.62;;;;;;;19.72;93.13;98517.39;1640480;87;20963;-73
2021/08/06 02:22:17;;;;;;;7.83;4.70;;;;;;;19.70;93.11;98527.86;1597659;89;22013;-70
2021/08/06 02:24:47;;;;;;;7.15;4.37;;;;;;;19.68;92.74;98519.77;1627590;86;21065;-68
2021/08/06 02:27:16;;;;;;;10.28;4.22;;;;;;;19.65;93.21;98503.52;1606160;88;22876;-70
2021/08/06 02:29:43;;;;;;;13.13;3.67;;;;;;;19.64;92.89;98507.37;1627853;87;21054;-70
2021/08/06 02:32:12;;;;;;;7.37;3.27;;;;;;;19.65;92.59;98506.25;1590972;88;21571;-69
2021/08/06 02:34:39;;;;;;;11.93;3.45;;;;;;;19.64;92.55;98499.20;1623512;88;21122;-69
2021/08/06 02:37:05;;;;;;;4.25;3.62;;;;;;;19.64;92.58;98496.47;1596110;89;21663;-70
2021/08/06 02:39:32;;;;;;;4.05;3.52;;;;;;;19.64;92.36;98497.03;1622115;88;21264;-69
2021/08/06 02:42:01;;;;;;;5.42;3.22;;;;;;;19.62;92.65;98501.45;1601583;88;21042;-69
2021/08/06 02:44:28;;;;;;;6.22;2.85;;;;;;;19.60;92.46;98506.47;1620929;88;20955;-69
2021/08/06 02:46:56;;;;;;;4.00;3.47;;;;;;;19.58;92.60;98502.70;1647197;86;21027;-71
2021/08/06 02:49:23;;;;;;;8.18;3.72;;;;;;;19.62;92.68;98511.56;1647374;87;20968;-70
2021/08/06 02:51:49;;;;;;;3.37;2.85;;;;;;;19.68;92.56;98519.20;1649240;86;21154;-70
2021/08/06 02:54:16;;;;;;;5.70;3.62;;;;;;;19.75;92.37;98522.75;1620820;88;21017;-70
2021/08/06 02:56:42;;;;;;;4.17;2.65;;;;;;;19.77;91.80;98521.27;1649712;86;21070;-70
2021/08/06 02:59:10;;;;;;;4.92;3.30;;;;;;;19.76;92.50;98511.48;1649769;86;21512;-71
2021/08/06 03:01:37;;;;;;;9.53;3.00;;;;;;;19.73;92.22;98527.73;1623525;88;21003;-70
2021/08/06 03:04:03;;;;;;;6.95;3.65;;;;;;;19.74;92.17;98547.06;1595858;89;21264;-71
2021/08/06 03:06:30;;;;;;;3.27;2.98;;;;;;;19.76;92.37;98552.41;1596569;89;20951;-69
2021/08/06 03:08:58;;;;;;;5.08;3.67;;;;;;;19.77;92.04;98536.27;1596715;88;21059;-69
2021/08/06 03:11:27;;;;;;;3.08;2.70;;;;;;;19.77;92.57;98520.46;1621268;88;21346;-68
2021/08/06 03:13:54;;;;;;;4.42;3.05;;;;;;;19.80;92.01;98518.44;1648551;86;21523;-68
2021/08/06 03:16:21;;;;;;;8.23;2.85;;;;;;;19.78;92.39;98513.31;1648660;87;21821;-68
2021/08/06 03:18:49;;;;;;;4.20;2.65;;;;;;;19.79;92.63;98525.83;1632950;86;21020;-68
2021/08/06 03:21:17;;;;;;;6.83;2.85;;;;;;;19.82;92.79;98510.70;1648583;86;20980;-68
2021/08/06 03:23:45;;;;;;;4.28;3.05;;;;;;;19.82;92.85;98501.14;1647649;86;21008;-68
2021/08/06 03:26:12;;;;;;;7.72;3.65;;;;;;;19.85;92.78;98490.94;1622303;87;21056;-68
2021/08/06 03:28:40;;;;;;;8.55;2.85;;;;;;;19.92;92.69;98476.14;1622816;88;21883;-67
2021/08/06 03:31:07;;;;;;;6.22;2.52;;;;;;;19.97;91.51;98475.35;1629535;86;21038;-68
2021/08/06 03:33:34;;;;;;;3.92;2.22;;;;;;;20.01;90.78;98467.27;1651129;85;21635;-68
2021/08/06 03:36:04;;;;;;;3.77;2.70;;;;;;;20.05;90.30;98462.72;1647019;86;21059;-68
2021/08/06 03:38:32;;;;;;;5.28;2.62;;;;;;;20.06;89.97;98448.50;1671804;85;21070;-67
2021/08/06 03:40:59;;;;;;;5.12;2.45;;;;;;;20.05;89.83;98449.06;1647786;87;23343;-67
2021/08/06 03:43:26;;;;;;;2.77;2.37;;;;;;;20.11;89.27;98459.99;1648630;85;21539;-69
2021/08/06 03:45:53;;;;;;;5.33;2.72;;;;;;;20.14;89.41;98462.63;1648464;86;21590;-69
2021/08/06 03:48:20;;;;;;;3.47;2.30;;;;;;;20.16;89.52;98464.42;1671853;85;21678;-67
2021/08/06 03:50:46;;;;;;;6.33;2.98;;;;;;;20.23;89.49;98468.75;1647814;86;21085;-68
2021/08/06 03:53:13;;;;;;;3.72;2.52;;;;;;;20.29;89.36;98469.52;1647401;87;21168;-69
2021/08/06 03:55:40;;;;;;;5.53;2.40;;;;;;;20.39;89.11;98473.75;1652044;85;21023;-69
2021/08/06 03:58:07;;;;;;;4.17;2.52;;;;;;;20.42;87.12;98512.69;1671715;85;21139;-70
2021/08/06 04:00:41;;;;;;;5.30;3.08;;;;;;;20.42;87.12;98512.69;1671486;85;21572;-69
2021/08/06 04:03:08;;;;;;;2.40;2.20;;;;;;;20.38;86.42;98528.94;1698491;83;21784;-68
2021/08/06 04:05:35;;;;;;;6.70;3.00;;;;;;;20.32;86.85;98537.16;1670430;85;21308;-70
2021/08/06 04:08:06;;;;;;;5.83;2.77;;;;;;;20.28;87.25;98549.88;1670225;85;20964;-70
2021/08/06 04:10:36;;;;;;;6.92;5.10;;;;;;;20.34;87.18;98532.70;1686898;83;21001;-70
2021/08/06 04:13:06;;;;;;;5.45;3.30;;;;;;;20.34;87.18;98532.70;1671106;85;20994;-69
2021/08/06 04:15:33;;;;;;;5.90;3.25;;;;;;;20.36;86.80;98555.81;1669785;85;21031;-71
2021/08/06 04:17:59;;;;;;;4.67;2.47;;;;;;;20.37;86.99;98553.87;1669026;86;21184;-70
2021/08/06 04:20:26;;;;;;;5.67;2.30;;;;;;;20.53;86.40;98569.78;1671172;85;21003;-68
2021/08/06 04:22:53;;;;;;;5.78;2.65;;;;;;;20.53;86.40;98569.78;1649781;86;21038;-70
2021/08/06 04:25:19;;;;;;;2.87;1.85;;;;;;;20.60;85.97;98560.46;1649696;86;21149;-70
2021/08/06 04:27:47;;;;;;;2.62;2.00;;;;;;;20.67;85.55;98551.10;1649950;86;21110;-71
2021/08/06 04:30:14;;;;;;;3.37;2.00;;;;;;;20.72;84.70;98542.67;1649834;86;21106;-71
2021/08/06 04:32:41;;;;;;;2.42;2.22;;;;;;;20.73;84.24;98550.30;1640089;87;20988;-70
2021/08/06 04:35:08;;;;;;;9.70;4.35;;;;;;;20.71;84.81;98559.43;1642084;86;21131;-70
2021/08/06 04:37:50;;;;;;;3.98;2.60;;;;;;;20.75;84.90;98554.30;1664760;85;21476;-70
2021/08/06 04:40:17;;;;;;;5.50;2.92;;;;;;;20.76;84.29;98551.00;1616567;87;21019;-70
2021/08/06 04:42:45;;;;;;;5.92;2.58;;;;;;;20.81;83.74;98546.06;1670308;85;21956;-70
2021/08/06 04:45:12;;;;;;;4.03;3.02;;;;;;;20.93;83.07;98541.72;1670337;86;21571;-69
2021/08/06 04:47:45;;;;;;;2.80;2.47;;;;;;;20.96;82.76;98551.98;1637699;87;21575;-69
2021/08/06 04:50:15;;;;;;;6.10;3.15;;;;;;;20.97;83.08;98547.52;1670397;85;20931;-70
2021/08/06 04:52:42;;;;;;;7.55;3.50;;;;;;;21.10;83.33;98557.86;1670540;85;21046;-74
2021/08/06 04:55:10;;;;;;;3.45;2.35;;;;;;;21.28;82.85;98563.30;1668909;85;21109;-70
2021/08/06 04:57:37;;;;;;;5.03;2.75;;;;;;;21.43;82.19;98561.75;1634672;86;21046;-70
2021/08/06 05:00:06;;;;;;;8.00;3.42;;;;;;;21.50;81.49;98560.56;1646914;86;21013;-69
2021/08/06 05:02:32;;;;;;;8.95;3.70;;;;;;;21.53;79.87;98556.58;1613442;87;21067;-68
2021/08/06 05:05:01;;;;;;;20.05;4.28;;;;;;;21.50;78.89;98561.94;1645770;86;21062;-68
2021/08/06 05:07:27;;;;;;;13.75;4.92;;;;;;;21.48;78.68;98564.24;1669328;85;21177;-70
2021/08/06 05:09:53;;;;;;;23.95;18.12;;;;;;;21.51;78.91;98580.75;1670496;85;20972;-69
2021/08/06 05:12:20;;;;;;;13.98;5.90;;;;;;;21.60;78.99;98589.59;1647215;86;21110;-70
2021/08/06 05:14:47;;;;;;;7.78;4.58;;;;;;;21.72;78.18;98593.66;1669166;86;21091;-69
2021/08/06 05:17:14;;;;;;;15.65;4.87;;;;;;;21.77;77.79;98586.33;1668632;86;20992;-69
2021/08/06 05:19:43;;;;;;;6.47;4.50;;;;;;;21.75;77.49;98580.63;1603949;87;21509;-68
2021/08/06 05:22:10;;;;;;;9.05;3.85;;;;;;;21.71;77.75;98597.53;1670390;86;20948;-69
2021/08/06 05:24:37;;;;;;;8.95;3.70;;;;;;;21.69;78.04;98599.02;1669658;85;20928;-70
2021/08/06 05:27:05;;;;;;;9.15;4.62;;;;;;;21.66;78.24;98578.63;1669035;86;21040;-69
2021/08/06 05:29:32;;;;;;;10.35;3.85;;;;;;;21.69;78.36;98584.76;1637916;87;21030;-70
2021/08/06 05:31:59;;;;;;;5.80;4.05;;;;;;;21.67;78.23;98585.70;1646856;86;21265;-69
2021/08/06 05:34:25;;;;;;;7.10;3.27;;;;;;;21.69;77.97;98597.08;1637355;87;21007;-69
2021/08/06 05:36:52;;;;;;;6.35;4.42;;;;;;;21.62;77.33;98591.42;1668858;86;20983;-71
2021/08/06 05:39:19;;;;;;;8.93;3.85;;;;;;;21.50;78.32;98597.50;1637552;87;21091;-69
2021/08/06 05:41:47;;;;;;;8.25;4.37;;;;;;;21.42;78.84;98596.52;1670400;86;21090;-70
2021/08/06 05:44:15;;;;;;;6.45;3.65;;;;;;;21.48;79.40;98593.77;1661517;86;21305;-68
2021/08/06 05:46:41;;;;;;;3.95;3.15;;;;;;;21.59;79.18;98588.56;1668169;86;21054;-69
2021/08/06 05:49:08;;;;;;;8.63;3.47;;;;;;;21.65;78.92;98590.72;1637311;87;21066;-68
2021/08/06 05:51:35;;;;;;;8.35;4.62;;;;;;;21.72;79.02;98603.81;1635116;87;21119;-70
2021/08/06 05:54:03;;;;;;;7.25;4.60;;;;;;;21.71;78.49;98606.31;1665810;86;21557;-68
2021/08/06 05:56:31;;;;;;;5.80;4.95;;;;;;;21.72;78.61;98612.81;1656187;86;21122;-68
2021/08/06 05:58:58;;;;;;;8.00;4.17;;;;;;;21.72;78.50;98611.45;1631892;86;21035;-69
2021/08/06 06:01:25;;;;;;;4.65;3.90;;;;;;;21.72;78.74;98610.65;1670280;86;20971;-68
2021/08/06 06:03:55;;;;;;;6.78;3.75;;;;;;;21.77;79.05;98620.55;1636630;87;21064;-69
2021/08/06 06:06:23;;;;;;;15.55;6.83;;;;;;;21.85;79.15;98627.23;1643448;86;21002;-69
2021/08/06 06:08:50;;;;;;;8.38;4.87;;;;;;;21.91;78.58;98628.58;1669530;86;21085;-69
2021/08/06 06:11:16;;;;;;;6.58;3.83;;;;;;;21.95;77.68;98626.75;1669541;86;20984;-70
2021/08/06 06:13:43;;;;;;;8.48;3.85;;;;;;;21.94;77.68;98630.63;1668958;85;21043;-69
2021/08/06 06:16:10;;;;;;;5.00;4.03;;;;;;;21.93;77.79;98631.77;1668688;85;21071;-70
2021/08/06 06:18:37;;;;;;;7.83;4.33;;;;;;;21.94;77.55;98630.63;1668966;86;21096;-69
2021/08/06 06:21:06;;;;;;;6.15;4.20;;;;;;;21.88;77.78;98635.30;1670223;86;21096;-69
2021/08/06 06:23:33;;;;;;;8.35;3.58;;;;;;;21.84;78.11;98643.42;1613110;87;21578;-68
2021/08/06 06:26:00;;;;;;;12.05;3.50;;;;;;;21.80;79.07;98641.73;1670614;86;21078;-69
2021/08/06 06:28:28;;;;;;;6.15;3.95;;;;;;;21.81;79.20;98652.34;1670135;86;21696;-68
2021/08/06 06:30:57;;;;;;;9.85;4.35;;;;;;;21.87;79.27;98659.14;1670637;86;21023;-70
2021/08/06 06:33:25;;;;;;;5.80;3.85;;;;;;;21.91;79.27;98660.06;1646933;86;22137;-70
2021/08/06 06:35:52;;;;;;;14.40;5.00;;;;;;;21.94;79.25;98663.48;1646923;86;21539;-68
2021/08/06 06:38:19;;;;;;;4.62;4.05;;;;;;;21.98;78.75;98658.90;1670255;85;21027;-70
2021/08/06 06:40:45;;;;;;;8.70;3.98;;;;;;;22.02;78.64;98662.52;1670156;86;21011;-70
2021/08/06 06:43:16;;;;;;;4.42;3.47;;;;;;;22.03;78.53;98668.80;1670112;86;21024;-71
2021/08/06 06:45:43;;;;;;;8.18;4.10;;;;;;;22.05;78.30;98656.94;1670578;86;21102;-69
2021/08/06 06:48:09;;;;;;;7.60;3.87;;;;;;;22.12;77.85;98659.28;1670058;86;21094;-70
2021/08/06 06:50:37;;;;;;;6.40;3.80;;;;;;;22.16;77.80;98650.58;1637741;87;21062;-68
2021/08/06 06:53:04;;;;;;;7.37;4.00;;;;;;;22.25;77.30;98643.58;1669788;86;21068;-69
2021/08/06 06:55:31;;;;;;;7.75;3.62;;;;;;;22.30;77.04;98649.38;1668862;86;21064;-70
2021/08/06 06:57:59;;;;;;;3.95;3.10;;;;;;;22.33;76.66;98641.23;1669761;86;20999;-69
2021/08/06 07:00:29;;;;;;;7.83;3.72;;;;;;;22.39;76.69;98643.15;1668878;85;21062;-69
2021/08/06 07:02:55;;;;;;;8.75;3.90;;;;;;;22.37;76.92;98638.02;1668807;86;21599;-69
2021/08/06 07:05:23;;;;;;;7.78;4.45;;;;;;;22.36;77.12;98636.41;1670291;86;20975;-70
2021/08/06 07:07:51;;;;;;;4.53;4.05;;;;;;;22.43;76.41;98638.55;1670355;86;21082;-69
2021/08/06 07:10:18;;;;;;;7.28;3.92;;;;;;;22.52;75.79;98634.48;1637749;87;21220;-69
2021/08/06 07:12:45;;;;;;;11.33;3.95;;;;;;;22.59;75.90;98637.95;1613093;87;21541;-67
2021/08/06 07:15:13;;;;;;;6.62;3.50;;;;;;;22.61;75.34;98627.44;1645599;86;21126;-69
2021/08/06 07:17:41;;;;;;;6.15;3.42;;;;;;;22.66;74.87;98621.69;1668635;85;21036;-74
2021/08/06 07:20:10;;;;;;;9.13;4.37;;;;;;;22.70;74.49;98623.13;1646931;86;21106;-77
2021/08/06 07:22:38;;;;;;;9.30;3.85;;;;;;;22.73;74.42;98626.59;1670007;86;21125;-70
2021/08/06 07:25:09;;;;;;;4.42;3.52;;;;;;;22.75;74.67;98633.28;1669137;86;21036;-71
2021/08/06 07:27:38;;;;;;;6.05;4.08;;;;;;;22.80;74.04;98630.27;1634253;87;21079;-71
2021/08/06 07:30:06;;;;;;;12.93;5.40;;;;;;;22.82;73.67;98624.45;1670652;86;21064;-70
2021/08/06 07:32:33;;;;;;;6.03;3.20;;;;;;;22.86;73.37;98619.27;1670210;84;21125;-70
2021/08/06 07:35:00;;;;;;;8.25;4.60;;;;;;;22.89;73.23;98609.52;1668421;85;21580;-69
2021/08/06 07:37:27;;;;;;;5.42;3.20;;;;;;;22.93;73.62;98606.27;1669227;86;21027;-69
2021/08/06 07:39:54;;;;;;;4.60;3.80;;;;;;;22.97;73.27;98607.17;1647119;86;21063;-67
2021/08/06 07:42:20;;;;;;;7.85;3.08;;;;;;;23.03;72.90;98612.56;1637805;87;21163;-69
2021/08/06 07:44:47;;;;;;;6.33;3.85;;;;;;;23.08;73.05;98605.44;1669098;86;21051;-69
2021/08/06 07:47:14;;;;;;;4.25;3.17;;;;;;;23.15;72.71;98613.03;1668181;86;21344;-69
2021/08/06 07:49:41;;;;;;;4.58;2.95;;;;;;;23.22;72.78;98627.69;1670090;85;21009;-69
2021/08/06 07:52:10;;;;;;;7.08;4.47;;;;;;;23.25;72.26;98641.28;1670478;86;21075;-68
2021/08/06 07:54:37;;;;;;;5.50;3.70;;;;;;;23.23;72.30;98653.98;1647498;85;21068;-69
2021/08/06 07:57:05;;;;;;;6.53;4.22;;;;;;;23.23;72.35;98653.98;1670207;85;21052;-69
2021/08/06 07:59:32;;;;;;;5.30;3.67;;;;;;;23.24;72.34;98661.63;1670139;86;21745;-68
2021/08/06 08:01:59;;;;;;;12.43;3.47;;;;;;;23.21;72.26;98656.30;1647122;86;20932;-69
2021/08/06 08:04:26;;;;;;;6.78;3.60;;;;;;;23.18;72.53;98663.05;1670392;86;20971;-69
2021/08/06 08:06:54;;;;;;;4.87;4.00;;;;;;;23.19;72.23;98664.66;1670553;86;21042;-69
2021/08/06 08:09:23;;;;;;;5.92;4.08;;;;;;;23.21;72.54;98671.39;1670185;86;21559;-69
2021/08/06 08:11:49;;;;;;;8.35;4.08;;;;;;;23.20;72.87;98660.77;1670368;86;21195;-68
2021/08/06 08:14:16;;;;;;;8.15;4.35;;;;;;;23.16;72.38;98662.06;1670512;85;21592;-71
2021/08/06 08:16:44;;;;;;;28.30;11.93;;;;;;;23.19;72.60;98653.11;1670397;86;21582;-68
2021/08/06 08:19:12;;;;;;;9.73;4.03;;;;;;;23.16;72.23;98646.18;1670001;85;21042;-70
2021/08/06 08:21:39;;;;;;;9.60;3.67;;;;;;;23.19;72.28;98642.70;1670187;85;21050;-67
2021/08/06 08:24:07;;;;;;;8.38;4.28;;;;;;;23.22;72.06;98626.31;1647033;86;21260;-69
2021/08/06 08:26:34;;;;;;;10.13;4.85;;;;;;;23.24;71.51;98624.02;1670128;86;21282;-69
2021/08/06 08:29:01;;;;;;;10.13;4.53;;;;;;;23.34;71.78;98648.73;1637434;87;21095;-70
2021/08/06 08:31:28;;;;;;;13.38;5.28;;;;;;;23.37;71.25;98650.73;1668963;86;21276;-70
2021/08/06 08:33:55;;;;;;;7.33;4.10;;;;;;;23.39;71.43;98648.45;1668229;85;21608;-71
2021/08/06 08:36:22;;;;;;;10.65;4.10;;;;;;;23.38;70.97;98653.70;1669369;86;21220;-71
2021/08/06 08:39:01;;;;;;;10.40;4.47;;;;;;;23.41;71.05;98659.27;1670409;86;21537;-71
2021/08/06 08:41:30;;;;;;;14.03;5.80;;;;;;;23.44;71.02;98657.22;1640494;87;21111;-70
2021/08/06 08:43:59;;;;;;;7.47;4.58;;;;;;;23.44;70.67;98659.97;1596483;88;21113;-70
2021/08/06 08:46:27;;;;;;;9.48;5.08;;;;;;;23.47;70.67;98639.22;1638657;87;21103;-69
2021/08/06 08:49:00;;;;;;;7.33;4.28;;;;;;;23.52;70.95;98625.80;1628980;87;21901;-70
2021/08/06 08:51:29;;;;;;;9.93;4.42;;;;;;;23.59;70.11;98613.02;1628972;87;21078;-70
2021/08/06 08:54:00;;;;;;;10.48;4.78;;;;;;;23.58;70.22;98608.69;1631565;87;21090;-71
2021/08/06 08:56:29;;;;;;;9.13;4.97;;;;;;;23.60;70.07;98602.81;1623978;88;21065;-70
2021/08/06 08:58:55;;;;;;;4.67;3.08;;;;;;;23.59;70.53;98598.50;1602897;87;21069;-69
2021/08/06 09:01:22;;;;;;;4.62;3.75;;;;;;;23.70;70.38;98604.97;1640334;87;22003;-69
2021/08/06 09:03:50;;;;;;;7.45;4.92;;;;;;;23.82;68.85;98622.67;1634462;87;21560;-69
2021/08/06 09:06:19;;;;;;;8.00;3.87;;;;;;;23.88;68.56;98631.61;1628044;86;21065;-71
2021/08/06 09:08:47;;;;;;;8.45;4.00;;;;;;;23.95;68.92;98634.28;1629160;88;21049;-69
2021/08/06 09:11:32;;;;;;;9.60;3.30;;;;;;;23.99;69.15;98629.64;1625268;88;21118;-68
2021/08/06 09:14:24;;;;;;;7.53;4.60;;;;;;;24.03;69.10;98634.05;1551434;92;22021;-70
2021/08/06 09:17:03;;;;;;;6.12;3.33;;;;;;;24.07;68.10;98634.13;1608562;88;21599;-69
2021/08/06 09:19:37;;;;;;;7.75;3.72;;;;;;;24.03;68.50;98620.92;1605432;88;22410;-71
2021/08/06 09:22:18;;;;;;;4.55;3.08;;;;;;;24.01;68.88;98624.59;1603598;89;20994;-70
2021/08/06 09:25:18;;;;;;;5.60;4.47;;;;;;;24.02;68.47;98618.75;1585833;88;21267;-69
2021/08/06 09:27:52;;;;;;;13.60;3.10;;;;;;;23.99;68.35;98621.41;1629139;88;22219;-70
2021/08/06 09:30:36;;;;;;;7.05;5.53;;;;;;;23.87;68.34;98619.64;1608096;88;21062;-70
2021/08/06 09:33:03;;;;;;;4.75;3.27;;;;;;;23.72;68.84;98628.18;1627141;86;21105;-70
2021/08/06 09:35:32;;;;;;;7.50;3.90;;;;;;;23.70;69.42;98614.00;1625483;88;21115;-69
2021/08/06 09:38:00;;;;;;;4.53;3.20;;;;;;;23.74;69.83;98616.23;1626595;88;21589;-70
2021/08/06 09:40:30;;;;;;;5.85;3.98;;;;;;;23.80;69.86;98624.98;1624949;88;21266;-69
2021/08/06 09:43:02;;;;;;;7.70;3.87;;;;;;;23.93;69.32;98618.77;1599333;88;21557;-69
2021/08/06 09:45:40;;;;;;;6.73;4.73;;;;;;;24.02;68.82;98613.25;1625672;88;21067;-69
2021/08/06 09:48:09;;;;;;;6.37;3.90;;;;;;;24.04;67.84;98611.49;1626259;88;21657;-70
2021/08/06 09:50:44;;;;;;;5.55;4.00;;;;;;;24.06;67.95;98609.19;1624623;88;21117;-69
2021/08/06 09:53:11;;;;;;;8.45;4.90;;;;;;;24.11;68.46;98607.52;1579329;88;21106;-69
2021/08/06 09:55:43;;;;;;;13.55;5.12;;;;;;;24.16;66.93;98603.92;1625601;88;21337;-69
2021/08/06 09:58:12;;;;;;;7.28;4.92;;;;;;;24.18;66.79;98598.83;1626020;88;21531;-70
2021/08/06 10:00:46;;;;;;;7.70;3.42;;;;;;;24.12;67.01;98600.86;1626339;88;21063;-69
2021/08/06 10:03:30;;;;;;;9.80;5.72;;;;;;;24.15;67.58;98603.67;1600879;88;21032;-69
2021/08/06 10:06:12;;;;;;;;;;;;;;;24.21;66.93;98598.70;1627323;88;21141;-70
2021/08/06 10:08:39;;;;;;;7.10;4.03;;;;;;;24.27;66.74;98590.34;1593387;88;20206;-70
2021/08/06 10:11:05;;;;;;;10.20;4.22;;;;;;;24.36;66.05;98592.86;1625084;88;21075;-69
2021/08/06 10:13:34;;;;;;;10.80;4.62;;;;;;;24.36;64.87;98567.55;1626164;88;20999;-70
2021/08/06 10:16:03;;;;;;;5.45;4.20;;;;;;;24.39;65.42;98563.25;1625986;87;21039;-71
2021/08/06 10:18:30;;;;;;;7.17;4.75;;;;;;;24.43;65.27;98570.39;1624126;88;21906;-70
2021/08/06 10:20:57;;;;;;;7.67;5.03;;;;;;;24.53;65.25;98567.02;1628993;88;21050;-70
2021/08/06 10:23:24;;;;;;;5.05;4.12;;;;;;;24.63;64.37;98555.39;1628544;88;21081;-70
2021/08/06 10:25:51;;;;;;;5.97;4.03;;;;;;;24.72;64.29;98555.91;1628212;88;21102;-69
2021/08/06 10:28:18;;;;;;;7.83;4.17;;;;;;;24.85;63.49;98558.44;1626425;88;21053;-67
2021/08/06 10:30:45;;;;;;;5.65;4.95;;;;;;;24.92;63.13;98553.87;1629831;88;21819;-71
2021/08/06 10:33:28;;;;;;;5.58;3.47;;;;;;;24.98;63.01;98559.27;1629580;87;21168;-76
2021/08/06 10:36:06;;;;;;;9.68;5.25;;;;;;;25.01;62.75;98557.13;1627851;86;21045;-69
2021/08/06 10:38:43;;;;;;;5.60;4.35;;;;;;;25.01;62.74;98556.34;1627734;88;21043;-71
2021/08/06 10:41:20;;;;;;;5.92;3.85;;;;;;;25.05;62.75;98544.21;1627380;88;21603;-73
2021/08/06 10:43:51;;;;;;;8.08;3.92;;;;;;;25.03;62.92;98536.93;1627853;88;21562;-72
2021/08/06 10:46:19;;;;;;;7.20;4.62;;;;;;;25.00;63.22;98525.86;1621204;87;21288;-70
2021/08/06 10:48:50;;;;;;;7.17;4.90;;;;;;;25.07;63.46;98524.59;1597818;88;20963;-73
2021/08/06 10:51:26;;;;;;;8.45;4.10;;;;;;;25.24;63.42;98523.20;1617283;87;21019;-72
2021/08/06 10:54:00;;;;;;;5.62;4.28;;;;;;;25.36;62.16;98531.22;1626374;88;21085;-69
2021/08/06 10:56:29;;;;;;;16.45;6.62;;;;;;;25.43;60.77;98529.91;1612579;87;21211;-71
2021/08/06 10:59:10;;;;;;;9.65;3.87;;;;;;;25.44;61.52;98537.01;1670515;85;21697;-70
2021/08/06 11:01:35;;;;;;;5.65;4.05;;;;;;;25.53;61.04;98553.44;1611989;87;21608;-72
2021/08/06 11:04:15;;;;;;;9.45;4.42;;;;;;;25.60;60.87;98539.00;1646152;86;21052;-71
2021/08/06 11:06:55;;;;;;;8.63;4.42;;;;;;;25.71;60.71;98544.02;1637350;87;21081;-72
2021/08/06 11:09:31;;;;;;;6.22;4.22;;;;;;;25.81;58.77;98547.47;1670308;86;21100;-73
2021/08/06 11:12:07;;;;;;;8.93;4.45;;;;;;;25.89;58.75;98545.59;1669557;85;20991;-75
2021/08/06 11:14:40;;;;;;;5.45;4.10;;;;;;;25.83;58.87;98560.87;1669647;86;20991;-71
2021/08/06 11:17:26;;;;;;;3.87;3.53;;;;;;;25.87;59.08;98543.20;1666415;86;21395;-73
2021/08/06 11:20:11;;;;;;;8.90;4.22;;;;;;;25.93;59.48;98549.16;1648216;85;21209;-74
2021/08/06 11:22:45;;;;;;;9.43;4.33;;;;;;;25.93;59.41;98554.09;1670163;86;21344;-72
2021/08/06 11:25:24;;;;;;;9.78;4.72;;;;;;;25.91;59.39;98545.98;1646445;85;20987;-73
2021/08/06 11:27:55;;;;;;;7.78;4.37;;;;;;;25.92;60.01;98550.33;1647744;86;21004;-72
2021/08/06 11:30:33;;;;;;;6.30;4.33;;;;;;;25.88;60.36;98539.86;1647873;85;20924;-74
2021/08/06 11:33:04;;;;;;;9.38;4.90;;;;;;;25.89;59.59;98554.65;1670028;85;20994;-72
2021/08/06 11:35:36;;;;;;;8.20;4.20;;;;;;;25.75;60.23;98562.77;1670998;86;21231;-73
2021/08/06 11:38:07;;;;;;;5.60;4.17;;;;;;;25.71;60.64;98564.67;1670698;85;20983;-74
2021/08/06 11:40:35;;;;;;;6.83;4.20;;;;;;;25.74;60.84;98566.69;1670616;86;21047;-72
2021/08/06 11:43:19;;;;;;;8.13;4.90;;;;;;;25.77;60.15;98571.43;1634541;87;21552;-71